Time;durP1;ratioP1;P1;durP2;ratioP2;P2;SDS_P1;SDS_P2;PMS_P1;PMS_P2;Temp;Humidity;BMP_temperature;BMP_pressure;BME280_temperature;BME280_humidity;BME280_pressure;Samples;Min_cycle;Max_cycle;Signal;HPM_P1;HPM_P2
2022/09/17 00:01:57;;;;;;;5.40;2.00;;;12.30;99.90;;;;;;5014582;28;20323;-74
2022/09/17 00:04:23;;;;;;;7.97;1.77;;;12.40;99.90;;;;;;5011487;28;20211;-73
2022/09/17 00:06:48;;;;;;;4.13;1.60;;;12.40;99.90;;;;;;5006309;28;20212;-73
2022/09/17 00:09:14;;;;;;;7.23;3.10;;;12.40;99.90;;;;;;5001904;28;20211;-73
2022/09/17 00:11:42;;;;;;;4.00;1.90;;;12.40;99.90;;;;;;5017680;28;20629;-73
2022/09/17 00:14:15;;;;;;;5.53;1.90;;;12.50;99.90;;;;;;5011883;28;20182;-72
2022/09/17 00:16:46;;;;;;;8.57;2.50;;;12.40;99.90;;;;;;5021040;28;20235;-73
2022/09/17 00:19:16;;;;;;;9.13;1.87;;;12.50;99.90;;;;;;5015570;28;20209;-73
2022/09/17 00:21:42;;;;;;;6.73;2.27;;;12.50;99.90;;;;;;4990987;28;20629;-73
2022/09/17 00:24:10;;;;;;;6.47;1.97;;;12.50;99.90;;;;;;5006837;28;20210;-73
2022/09/17 00:26:36;;;;;;;6.17;2.47;;;12.50;99.90;;;;;;5017441;28;20231;-72
2022/09/17 00:29:02;;;;;;;7.87;2.93;;;12.50;99.90;;;;;;4994386;28;20209;-73
2022/09/17 00:31:29;;;;;;;6.33;2.63;;;12.50;99.90;;;;;;4991609;28;20233;-73
2022/09/17 00:33:54;;;;;;;5.20;3.13;;;12.60;99.90;;;;;;4993656;28;20213;-72
2022/09/17 00:36:21;;;;;;;7.17;1.80;;;12.60;99.90;;;;;;5016217;28;20736;-72
2022/09/17 00:38:57;;;;;;;4.33;2.00;;;12.50;99.90;;;;;;4990007;28;20208;-73
2022/09/17 00:41:27;;;;;;;4.37;1.93;;;12.50;99.90;;;;;;5008111;28;20586;-73
2022/09/17 00:43:59;;;;;;;5.23;1.63;;;12.60;99.90;;;;;;5015546;28;20173;-72
2022/09/17 00:46:39;;;;;;;8.17;2.47;;;12.50;99.90;;;;;;5011954;28;20288;-73
2022/09/17 00:49:09;;;;;;;5.63;2.10;;;12.50;99.90;;;;;;4987195;28;20587;-74
2022/09/17 00:51:40;;;;;;;7.77;2.97;;;12.50;99.90;;;;;;5016635;28;20204;-72
2022/09/17 00:54:08;;;;;;;8.57;2.90;;;12.50;99.90;;;;;;5014706;28;20225;-73
2022/09/17 00:56:35;;;;;;;8.33;2.83;;;12.50;99.90;;;;;;4989484;28;20235;-73
2022/09/17 00:59:02;;;;;;;6.43;1.87;;;12.50;99.90;;;;;;4997300;28;20601;-73
2022/09/17 01:01:28;;;;;;;11.50;4.90;;;12.50;99.90;;;;;;5016247;28;20234;-73
2022/09/17 01:03:54;;;;;;;8.17;2.80;;;12.50;99.90;;;;;;4990601;28;20687;-73
2022/09/17 01:06:25;;;;;;;7.83;3.87;;;12.50;99.90;;;;;;5009915;28;20216;-74
2022/09/17 01:09:18;;;;;;;7.23;2.50;;;12.60;99.90;;;;;;5013180;28;20589;-72
2022/09/17 01:12:08;;;;;;;6.60;1.93;;;12.60;99.90;;;;;;5009149;28;20213;-73
2022/09/17 01:15:00;;;;;;;7.10;2.17;;;12.60;99.90;;;;;;5005125;28;20220;-74
2022/09/17 01:17:28;;;;;;;6.23;2.23;;;12.60;99.90;;;;;;4999860;28;20247;-73
2022/09/17 01:20:31;;;;;;;5.33;2.17;;;12.60;99.90;;;;;;5010936;28;20276;-73
2022/09/17 01:23:06;;;;;;;10.13;2.10;;;12.60;99.90;;;;;;5006813;28;20221;-73
2022/09/17 01:25:55;;;;;;;5.77;2.10;;;12.60;99.90;;;;;;5013716;28;20218;-73
2022/09/17 01:28:37;;;;;;;7.33;2.10;;;12.60;99.90;;;;;;4991776;28;20254;-72
2022/09/17 01:31:08;;;;;;;7.43;2.10;;;12.60;99.90;;;;;;5005293;28;20248;-73
2022/09/17 01:33:46;;;;;;;9.00;2.33;;;12.60;99.90;;;;;;4989416;28;20254;-72
2022/09/17 01:36:16;;;;;;;7.70;1.70;;;12.60;99.90;;;;;;4997837;28;20296;-73
2022/09/17 01:39:01;;;;;;;29.33;14.90;;;12.60;99.90;;;;;;5007184;28;20748;-73
2022/09/17 01:41:51;;;;;;;9.07;5.53;;;12.70;99.90;;;;;;4990153;28;20231;-73
2022/09/17 01:44:41;;;;;;;8.30;2.77;;;12.70;99.90;;;;;;5016641;28;20175;-73
2022/09/17 01:47:17;;;;;;;10.33;2.40;;;12.60;99.90;;;;;;4971011;28;20312;-72
2022/09/17 01:49:43;;;;;;;5.53;1.93;;;12.60;99.90;;;;;;5004680;28;20219;-74
2022/09/17 01:52:11;;;;;;;6.43;2.33;;;12.60;99.90;;;;;;4999309;28;20300;-74
2022/09/17 01:54:48;;;;;;;8.17;2.43;;;12.60;99.90;;;;;;4995463;28;20255;-73
2022/09/17 01:57:26;;;;;;;4.57;1.83;;;12.60;99.90;;;;;;4988247;28;20211;-73
2022/09/17 02:00:04;;;;;;;6.70;1.83;;;12.60;99.90;;;;;;5012897;28;20216;-72
2022/09/17 02:02:38;;;;;;;10.17;2.70;;;12.60;99.90;;;;;;5010781;28;20213;-72
2022/09/17 02:05:36;;;;;;;7.97;2.37;;;12.60;99.90;;;;;;5001266;28;20186;-73
2022/09/17 02:08:09;;;;;;;9.33;2.60;;;12.60;99.90;;;;;;4994258;28;20227;-72
2022/09/17 02:11:02;;;;;;;4.53;2.10;;;12.60;99.90;;;;;;5008066;28;20270;-73
2022/09/17 02:13:35;;;;;;;5.87;2.40;;;12.60;99.90;;;;;;4983997;28;20197;-72
2022/09/17 02:16:08;;;;;;;7.10;2.37;;;12.70;99.90;;;;;;5004117;28;20328;-72
2022/09/17 02:18:43;;;;;;;6.47;2.10;;;12.60;99.90;;;;;;4992512;28;20632;-73
2022/09/17 02:21:22;;;;;;;8.20;2.93;;;12.70;99.90;;;;;;4986181;28;20229;-73
2022/09/17 02:24:09;;;;;;;4.17;1.90;;;12.70;99.90;;;;;;5000277;28;20582;-73
2022/09/17 02:26:40;;;;;;;6.87;2.70;;;12.70;99.90;;;;;;4989709;28;20709;-72
2022/09/17 02:29:10;;;;;;;7.50;2.00;;;12.70;99.90;;;;;;5004018;28;20194;-73
2022/09/17 02:31:36;;;;;;;7.17;2.30;;;12.70;99.90;;;;;;5003185;28;20177;-72
2022/09/17 02:34:04;;;;;;;5.43;2.30;;;12.80;99.90;;;;;;5006122;28;20204;-73
2022/09/17 02:36:31;;;;;;;5.57;2.27;;;12.80;99.90;;;;;;5007181;28;20244;-73
2022/09/17 02:39:01;;;;;;;10.67;3.03;;;12.80;99.90;;;;;;4984070;28;20246;-73
2022/09/17 02:41:39;;;;;;;12.27;3.93;;;12.80;99.90;;;;;;5002773;28;20735;-72
2022/09/17 02:44:19;;;;;;;6.73;2.83;;;12.70;99.90;;;;;;5006815;28;20582;-72
2022/09/17 02:47:33;;;;;;;7.60;2.53;;;12.70;99.90;;;;;;4986315;28;20197;-73
2022/09/17 02:50:04;;;;;;;10.27;2.70;;;12.70;99.90;;;;;;5003649;28;20207;-72
2022/09/17 02:53:07;;;;;;;5.93;2.20;;;12.80;99.90;;;;;;5008376;28;20203;-73
2022/09/17 02:55:51;;;;;;;8.97;2.67;;;12.80;99.90;;;;;;5003166;28;20250;-73
2022/09/17 02:58:23;;;;;;;9.13;2.60;;;12.80;99.90;;;;;;5021168;23;20220;-74
2022/09/17 03:00:49;;;;;;;7.93;3.07;;;12.80;99.90;;;;;;5039423;28;20211;-73
2022/09/17 03:03:32;;;;;;;7.20;2.40;;;12.70;99.90;;;;;;5032711;28;20200;-73
2022/09/17 03:05:58;;;;;;;6.40;2.83;;;12.70;99.90;;;;;;5025648;28;20223;-72
2022/09/17 03:08:31;;;;;;;9.40;2.40;;;12.80;99.90;;;;;;5035467;28;20310;-73
2022/09/17 03:10:56;;;;;;;8.67;2.70;;;12.80;99.90;;;;;;5028934;28;20231;-74
2022/09/17 03:13:22;;;;;;;12.83;3.27;;;12.80;99.90;;;;;;5028258;28;20212;-73
2022/09/17 03:15:48;;;;;;;14.27;3.07;;;12.70;99.90;;;;;;5028039;28;20706;-73
2022/09/17 03:18:14;;;;;;;11.23;2.47;;;12.70;99.90;;;;;;5030611;28;20203;-74
2022/09/17 03:20:39;;;;;;;6.53;2.30;;;12.70;99.90;;;;;;5027819;28;20232;-73
2022/09/17 03:23:05;;;;;;;8.27;2.10;;;12.70;99.90;;;;;;5024432;28;20173;-74
2022/09/17 03:25:30;;;;;;;8.83;2.80;;;12.70;99.90;;;;;;5028798;28;20196;-73
2022/09/17 03:27:56;;;;;;;6.50;2.67;;;12.80;99.90;;;;;;5028188;28;20230;-74
2022/09/17 03:30:21;;;;;;;9.87;2.50;;;12.80;99.90;;;;;;5031382;28;20251;-74
2022/09/17 03:32:47;;;;;;;8.30;2.40;;;12.80;99.90;;;;;;5027120;28;20269;-73
2022/09/17 03:35:12;;;;;;;6.47;2.10;;;12.80;99.90;;;;;;5033062;28;20179;-72
2022/09/17 03:37:38;;;;;;;9.70;2.00;;;12.80;99.90;;;;;;5028633;28;20177;-73
2022/09/17 03:40:05;;;;;;;5.23;2.10;;;12.80;99.90;;;;;;5023767;28;20231;-73
2022/09/17 03:42:30;;;;;;;5.20;2.33;;;12.80;99.90;;;;;;5028407;28;20226;-73
2022/09/17 03:44:56;;;;;;;7.60;2.67;;;12.80;99.90;;;;;;5028063;28;20205;-74
2022/09/17 03:47:21;;;;;;;7.77;2.10;;;12.90;99.90;;;;;;5027530;28;20581;-73
2022/09/17 03:49:47;;;;;;;11.37;2.60;;;12.80;99.90;;;;;;5022262;28;20197;-74
2022/09/17 03:52:13;;;;;;;7.87;2.23;;;12.80;99.90;;;;;;5028514;28;20555;-73
2022/09/17 03:54:38;;;;;;;12.47;3.20;;;12.90;99.90;;;;;;5026822;28;20196;-73
2022/09/17 03:57:04;;;;;;;8.23;2.47;;;12.90;99.90;;;;;;5023946;28;20291;-72
2022/09/17 03:59:29;;;;;;;7.03;2.70;;;12.90;99.90;;;;;;5027552;28;20253;-73
2022/09/17 04:01:55;;;;;;;8.47;2.07;;;12.90;99.90;;;;;;5028341;28;20267;-73
2022/09/17 04:04:21;;;;;;;10.33;2.63;;;12.90;99.90;;;;;;5028244;28;20243;-73
2022/09/17 04:06:46;;;;;;;8.97;2.10;;;12.80;99.90;;;;;;5029313;28;20227;-74
2022/09/17 04:09:12;;;;;;;9.17;2.20;;;12.90;99.90;;;;;;5028336;28;20605;-73
2022/09/17 04:11:37;;;;;;;6.10;2.13;;;12.90;99.90;;;;;;5025889;28;20682;-72
2022/09/17 04:14:03;;;;;;;15.50;2.90;;;12.90;99.90;;;;;;5023078;28;20201;-73
2022/09/17 04:16:28;;;;;;;6.60;2.23;;;12.90;99.90;;;;;;5023887;28;20697;-73
2022/09/17 04:18:54;;;;;;;9.37;2.87;;;12.90;99.90;;;;;;5027692;28;20240;-73
2022/09/17 04:21:19;;;;;;;5.70;1.83;;;12.80;99.90;;;;;;5030137;28;20270;-73
2022/09/17 04:23:45;;;;;;;6.93;2.23;;;12.80;99.90;;;;;;5024251;28;20196;-73
2022/09/17 04:26:11;;;;;;;5.53;1.90;;;12.80;99.90;;;;;;5037834;28;20193;-73
2022/09/17 04:28:36;;;;;;;9.83;1.83;;;12.80;99.90;;;;;;5033130;28;20266;-73
2022/09/17 04:31:02;;;;;;;9.17;2.90;;;12.80;99.90;;;;;;5026316;28;20576;-73
2022/09/17 04:33:27;;;;;;;11.03;2.40;;;12.80;99.90;;;;;;5028194;28;20196;-73
2022/09/17 04:35:53;;;;;;;10.63;3.20;;;12.80;99.90;;;;;;5033722;28;20201;-73
2022/09/17 04:38:19;;;;;;;8.07;2.37;;;12.80;99.90;;;;;;5031970;28;20207;-73
2022/09/17 04:40:47;;;;;;;9.80;2.67;;;12.80;99.90;;;;;;5022396;28;20170;-73
2022/09/17 04:43:13;;;;;;;11.70;2.57;;;12.80;99.90;;;;;;5039776;28;20555;-73
2022/09/17 04:45:39;;;;;;;5.60;1.90;;;12.90;99.90;;;;;;5029814;28;20222;-73
2022/09/17 04:48:04;;;;;;;11.10;2.37;;;12.90;99.90;;;;;;5027109;28;20217;-73
2022/09/17 04:50:30;;;;;;;5.30;2.23;;;12.90;99.90;;;;;;5028352;28;20210;-72
2022/09/17 04:52:55;;;;;;;7.57;2.37;;;12.90;99.90;;;;;;5036173;28;20168;-73
2022/09/17 04:55:21;;;;;;;8.27;1.97;;;12.90;99.90;;;;;;5031667;28;20248;-73
2022/09/17 04:57:48;;;;;;;9.83;2.37;;;12.90;99.90;;;;;;5023260;28;20308;-73
2022/09/17 05:00:16;;;;;;;6.93;2.20;;;12.90;99.90;;;;;;5038072;28;20561;-73
2022/09/17 05:02:44;;;;;;;7.33;2.37;;;12.90;99.90;;;;;;5031914;28;20700;-73
2022/09/17 05:05:09;;;;;;;6.90;1.83;;;12.90;99.90;;;;;;5027466;28;20525;-73
2022/09/17 05:07:38;;;;;;;7.33;2.40;;;12.90;99.90;;;;;;5033500;28;20160;-73
2022/09/17 05:10:04;;;;;;;9.67;2.43;;;12.90;99.90;;;;;;5034846;28;20687;-73
2022/09/17 05:12:29;;;;;;;5.80;2.20;;;12.90;99.90;;;;;;5033724;28;20207;-72
2022/09/17 05:14:55;;;;;;;8.23;2.40;;;12.80;99.90;;;;;;5023151;28;20216;-73
2022/09/17 05:17:20;;;;;;;8.33;2.50;;;12.80;99.90;;;;;;5032904;28;20184;-73
2022/09/17 05:19:46;;;;;;;7.90;2.60;;;12.80;99.90;;;;;;5031192;28;20211;-72
2022/09/17 05:22:11;;;;;;;7.47;2.80;;;12.90;99.90;;;;;;5028344;28;20670;-73
2022/09/17 05:24:38;;;;;;;8.67;2.60;;;12.90;99.90;;;;;;5026244;28;20199;-73
2022/09/17 05:27:07;;;;;;;7.80;2.23;;;12.90;99.90;;;;;;5033184;28;20270;-73
2022/09/17 05:29:33;;;;;;;12.80;2.83;;;12.90;99.90;;;;;;5029562;28;20717;-73
2022/09/17 05:31:58;;;;;;;9.10;2.73;;;13.00;99.90;;;;;;5023243;28;20183;-72
2022/09/17 05:34:24;;;;;;;10.40;3.20;;;13.00;99.90;;;;;;5033065;28;20618;-74
2022/09/17 05:36:50;;;;;;;9.53;3.23;;;13.10;99.90;;;;;;5031029;28;20234;-73
2022/09/17 05:39:15;;;;;;;8.03;2.70;;;13.10;99.90;;;;;;5028628;28;20245;-73
2022/09/17 05:41:41;;;;;;;8.87;3.03;;;13.20;99.90;;;;;;5027665;28;20196;-73
2022/09/17 05:44:06;;;;;;;6.43;2.90;;;13.20;99.90;;;;;;5036460;28;20184;-73
2022/09/17 05:46:32;;;;;;;13.67;2.77;;;13.20;99.90;;;;;;5033740;28;20286;-73
2022/09/17 05:48:57;;;;;;;14.33;3.53;;;13.30;99.90;;;;;;5023102;28;20205;-73
2022/09/17 05:51:23;;;;;;;7.60;3.40;;;13.30;99.90;;;;;;5031408;28;20196;-73
2022/09/17 05:53:49;;;;;;;10.03;3.47;;;13.20;99.90;;;;;;5031266;28;20215;-73
2022/09/17 05:56:14;;;;;;;13.30;3.60;;;13.30;99.90;;;;;;5028603;28;20167;-73
2022/09/17 05:58:40;;;;;;;9.10;2.90;;;13.30;99.90;;;;;;5021521;28;20860;-74
2022/09/17 06:01:05;;;;;;;12.02;4.60;;;13.20;99.90;;;;;;5028099;28;20220;-73
2022/09/17 06:03:31;;;;;;;7.43;2.90;;;13.20;99.90;;;;;;5030669;28;20650;-74
2022/09/17 06:05:58;;;;;;;18.50;4.90;;;13.20;99.90;;;;;;5020513;28;20310;-73
2022/09/17 06:08:26;;;;;;;14.27;3.90;;;13.20;99.90;;;;;;5037292;28;20220;-74
2022/09/17 06:10:52;;;;;;;13.13;3.80;;;13.20;99.90;;;;;;5035472;28;20173;-72
2022/09/17 06:13:19;;;;;;;17.23;3.75;;;13.20;99.90;;;;;;5025970;28;20205;-74
2022/09/17 06:15:52;;;;;;;21.43;8.27;;;13.20;99.90;;;;;;5021354;28;20212;-73
2022/09/17 06:18:18;;;;;;;18.50;5.10;;;13.20;99.90;;;;;;5032520;28;20260;-75
2022/09/17 06:20:58;;;;;;;17.20;4.73;;;13.20;99.90;;;;;;5028984;28;20211;-74
2022/09/17 06:23:24;;;;;;;13.93;5.10;;;13.20;99.90;;;;;;5030208;28;20302;-73
2022/09/17 06:25:58;;;;;;;16.10;4.40;;;13.30;99.90;;;;;;5033208;28;20246;-72
2022/09/17 06:28:24;;;;;;;17.67;4.10;;;13.30;99.90;;;;;;5031751;28;20204;-74
2022/09/17 06:30:54;;;;;;;17.37;5.10;;;13.30;99.90;;;;;;5024291;28;20197;-74
2022/09/17 06:33:21;;;;;;;16.43;5.43;;;13.30;99.90;;;;;;5026072;28;20278;-74
2022/09/17 06:35:46;;;;;;;14.57;4.53;;;13.50;99.90;;;;;;5029457;28;20208;-72
2022/09/17 06:38:12;;;;;;;12.43;3.83;;;13.80;99.90;;;;;;5025571;28;20262;-73
2022/09/17 06:40:38;;;;;;;16.73;4.63;;;13.90;99.90;;;;;;5034437;28;20165;-73
2022/09/17 06:43:04;;;;;;;14.77;4.15;;;13.90;99.90;;;;;;5056736;28;20211;-73
2022/09/17 06:45:29;;;;;;;18.48;5.13;;;13.70;99.90;;;;;;5040341;28;20222;-72
2022/09/17 06:47:55;;;;;;;13.13;4.10;;;13.60;99.90;;;;;;5027680;28;20220;-72
2022/09/17 06:50:20;;;;;;;11.68;3.95;;;13.50;99.90;;;;;;5030625;28;20187;-73
2022/09/17 06:52:53;;;;;;;13.93;4.10;;;13.40;99.90;;;;;;5038145;28;20168;-73
2022/09/17 06:55:19;;;;;;;17.40;4.90;;;13.30;99.90;;;;;;5030922;28;20253;-73
2022/09/17 06:57:45;;;;;;;17.48;4.28;;;13.30;99.90;;;;;;5033005;28;20710;-73
2022/09/17 07:00:12;;;;;;;10.37;3.53;;;13.30;99.90;;;;;;5034768;28;20225;-72
2022/09/17 07:02:38;;;;;;;13.30;4.10;;;13.40;99.90;;;;;;5050791;28;20210;-73
2022/09/17 07:05:04;;;;;;;16.23;3.83;;;13.40;99.90;;;;;;5029673;28;20263;-72
2022/09/17 07:07:29;;;;;;;14.20;4.43;;;13.40;99.90;;;;;;5036039;28;20196;-72
2022/09/17 07:09:55;;;;;;;12.63;3.90;;;13.50;99.90;;;;;;5036589;28;20219;-72
2022/09/17 07:12:21;;;;;;;15.37;4.03;;;13.50;99.90;;;;;;5034407;28;20200;-73
2022/09/17 07:14:46;;;;;;;15.43;3.90;;;13.50;99.90;;;;;;5026250;28;20543;-72
2022/09/17 07:17:13;;;;;;;18.85;4.03;;;13.50;99.90;;;;;;5033253;28;20188;-72
2022/09/17 07:19:38;;;;;;;9.17;3.50;;;13.80;99.90;;;;;;5035778;28;20648;-72
2022/09/17 07:22:04;;;;;;;15.00;3.25;;;14.00;99.90;;;;;;5030110;28;20208;-73
2022/09/17 07:24:30;;;;;;;18.60;4.07;;;13.90;99.90;;;;;;5030189;28;20203;-73
2022/09/17 07:26:55;;;;;;;13.83;3.40;;;13.90;99.90;;;;;;5042023;28;20223;-73
2022/09/17 07:29:25;;;;;;;10.73;3.72;;;13.90;99.90;;;;;;5037191;28;20191;-73
2022/09/17 07:31:50;;;;;;;12.98;4.03;;;13.90;99.90;;;;;;5024693;28;20238;-73
2022/09/17 07:34:16;;;;;;;11.43;3.30;;;14.00;99.90;;;;;;5034284;28;20203;-73
2022/09/17 07:36:43;;;;;;;12.43;3.15;;;14.00;99.90;;;;;;5033695;28;20192;-74
2022/09/17 07:39:10;;;;;;;10.07;3.27;;;14.00;99.90;;;;;;5030217;28;20598;-74
2022/09/17 07:41:36;;;;;;;10.95;2.83;;;14.10;99.90;;;;;;5029825;28;20225;-74
2022/09/17 07:44:01;;;;;;;12.52;3.90;;;14.10;99.90;;;;;;5037120;28;20172;-71
2022/09/17 07:46:27;;;;;;;10.38;3.42;;;14.40;99.90;;;;;;5033848;28;20212;-74
2022/09/17 07:48:53;;;;;;;12.43;3.28;;;14.50;99.90;;;;;;5025512;28;20229;-74
2022/09/17 07:51:21;;;;;;;17.15;3.65;;;14.30;99.90;;;;;;5037657;28;20199;-73
2022/09/17 07:53:50;;;;;;;12.32;3.38;;;14.30;99.90;;;;;;5035439;28;20208;-74
2022/09/17 07:56:16;;;;;;;16.45;4.22;;;14.30;99.90;;;;;;5031590;28;20180;-72
2022/09/17 07:58:41;;;;;;;12.80;2.80;;;14.40;99.90;;;;;;5024052;28;20916;-71
2022/09/17 08:01:11;;;;;;;12.27;2.58;;;14.60;99.90;;;;;;5038208;28;20641;-72
2022/09/17 08:03:38;;;;;;;14.07;3.50;;;14.60;99.90;;;;;;5030081;28;20204;-72
2022/09/17 08:06:13;;;;;;;16.40;3.78;;;14.60;99.90;;;;;;5025254;28;20220;-71
2022/09/17 08:08:39;;;;;;;14.60;3.20;;;14.60;99.90;;;;;;5036424;28;20219;-72
2022/09/17 08:11:13;;;;;;;14.52;3.78;;;14.50;99.90;;;;;;5034723;28;20173;-71
2022/09/17 08:13:39;;;;;;;14.07;4.60;;;14.50;99.90;;;;;;5028659;28;20530;-73
2022/09/17 08:16:08;;;;;;;11.02;2.53;;;15.00;99.90;;;;;;5025392;28;20200;-71
2022/09/17 08:18:34;;;;;;;9.63;3.00;;;15.30;99.90;;;;;;5038010;28;20681;-73
2022/09/17 08:21:02;;;;;;;10.50;3.33;;;15.40;99.90;;;;;;5030584;28;20299;-72
2022/09/17 08:23:29;;;;;;;8.45;2.53;;;15.40;99.90;;;;;;5028315;28;20588;-72
2022/09/17 08:25:55;;;;;;;13.30;2.90;;;15.50;99.90;;;;;;5035038;28;20227;-72
2022/09/17 08:28:24;;;;;;;8.65;2.75;;;16.40;99.90;;;;;;5035491;28;20242;-72
2022/09/17 08:30:50;;;;;;;7.10;2.92;;;16.80;99.90;;;;;;5025195;28;20220;-72
2022/09/17 08:33:16;;;;;;;7.05;3.20;;;16.80;99.90;;;;;;5026435;28;20566;-72
2022/09/17 08:35:42;;;;;;;13.68;3.08;;;16.80;99.90;;;;;;5036357;28;20280;-73
2022/09/17 08:38:07;;;;;;;11.77;3.10;;;17.90;99.90;;;;;;5030341;28;20272;-74
2022/09/17 08:40:44;;;;;;;11.60;3.40;;;18.50;99.90;;;;;;5031132;28;20184;-72
2022/09/17 08:43:16;;;;;;;9.80;2.75;;;18.40;99.90;;;;;;5033844;28;20204;-72
2022/09/17 08:45:42;;;;;;;9.95;2.30;;;18.30;99.90;;;;;;5036178;28;20214;-73
2022/09/17 08:48:13;;;;;;;6.60;2.55;;;18.10;99.90;;;;;;5029687;28;20213;-73
2022/09/17 08:50:40;;;;;;;12.93;3.20;;;17.20;99.90;;;;;;5027879;28;20552;-73
2022/09/17 08:53:28;;;;;;;10.52;3.75;;;17.10;99.90;;;;;;5035193;28;20223;-73
2022/09/17 08:56:15;;;;;;;11.27;3.45;;;16.60;99.90;;;;;;5029681;28;20588;-72
2022/09/17 09:01:26;;;;;;;12.60;2.97;;;16.00;99.90;;;;;;5052562;28;20218;-72
2022/09/17 09:04:04;;;;;;;14.25;6.97;;;15.90;99.90;;;;;;5040947;28;20199;-75
2022/09/17 09:07:07;;;;;;;10.85;3.80;;;15.70;99.90;;;;;;5028656;28;20211;-73
2022/09/17 09:09:55;;;;;;;10.43;3.33;;;15.60;99.90;;;;;;5047000;28;20203;-73
2022/09/17 09:12:25;;;;;;;10.80;3.53;;;16.40;99.90;;;;;;5048282;28;20281;-72
2022/09/17 09:15:00;;;;;;;13.43;2.90;;;16.60;99.90;;;;;;5046158;28;20685;-72
2022/09/17 09:17:33;;;;;;;8.05;2.95;;;17.00;99.90;;;;;;5031704;28;20218;-72
2022/09/17 09:19:58;;;;;;;14.30;2.65;;;17.70;99.90;;;;;;5033902;28;20709;-72
2022/09/17 09:22:30;;;;;;;9.27;2.97;;;17.40;99.90;;;;;;5032421;28;20204;-73
2022/09/17 09:25:04;;;;;;;16.15;3.63;;;17.20;99.90;;;;;;5056119;28;20207;-72
2022/09/17 09:27:53;;;;;;;5.80;1.98;;;16.90;99.90;;;;;;5055826;28;20756;-73
2022/09/17 09:30:22;;;;;;;8.38;2.10;;;16.70;99.90;;;;;;5046203;28;20206;-74
2022/09/17 09:33:04;;;;;;;10.32;2.70;;;16.70;99.90;;;;;;5041116;28;20220;-72
2022/09/17 09:35:33;;;;;;;8.52;2.60;;;16.70;99.90;;;;;;5053132;28;20768;-73
2022/09/17 09:38:19;;;;;;;11.15;3.13;;;16.30;99.90;;;;;;5032233;28;20183;-73
2022/09/17 09:40:55;;;;;;;11.20;3.55;;;16.00;99.90;;;;;;5044481;28;20224;-73
2022/09/17 09:43:38;;;;;;;8.00;2.38;;;16.00;99.90;;;;;;5035036;28;20568;-73
2022/09/17 09:46:23;;;;;;;11.48;3.20;;;15.60;99.90;;;;;;5051536;28;20573;-74
2022/09/17 09:49:10;;;;;;;12.68;2.97;;;15.10;99.90;;;;;;5052040;28;20232;-73
2022/09/17 09:51:36;;;;;;;9.35;2.28;;;15.00;99.90;;;;;;5054950;28;20195;-73
2022/09/17 09:54:34;;;;;;;8.55;2.65;;;14.80;99.90;;;;;;5052409;28;20210;-73
2022/09/17 09:57:06;;;;;;;9.40;2.85;;;14.90;99.90;;;;;;5044550;28;20668;-73
2022/09/17 09:59:32;;;;;;;9.23;2.55;;;15.20;99.90;;;;;;5028179;28;20294;-73
2022/09/17 10:01:58;;;;;;;7.68;2.78;;;15.50;99.90;;;;;;5053136;28;20681;-73
2022/09/17 10:04:26;;;;;;;9.82;2.25;;;15.90;99.90;;;;;;5049573;28;20191;-73
2022/09/17 10:07:04;;;;;;;7.95;2.50;;;16.30;99.90;;;;;;5040442;28;20208;-73
2022/09/17 10:09:31;;;;;;;8.52;2.78;;;16.90;99.90;;;;;;5061060;28;20194;-73
2022/09/17 10:12:01;;;;;;;6.15;2.38;;;17.00;99.90;;;;;;5050832;28;20640;-73
2022/09/17 10:14:33;;;;;;;8.07;2.78;;;16.90;99.90;;;;;;5045246;28;20199;-73
2022/09/17 10:17:11;;;;;;;6.68;2.05;;;17.40;99.90;;;;;;5030392;28;20180;-73
2022/09/17 10:19:37;;;;;;;10.13;2.53;;;17.80;99.90;;;;;;5052330;28;20285;-73
2022/09/17 10:22:22;;;;;;;6.72;2.33;;;17.80;99.90;;;;;;5047352;28;20302;-73
2022/09/17 10:24:48;;;;;;;11.55;2.40;;;17.60;99.90;;;;;;5054482;28;20219;-73
2022/09/17 10:27:17;;;;;;;9.82;2.35;;;17.20;99.90;;;;;;5056120;28;20206;-73
2022/09/17 10:30:12;;;;;;;7.88;2.20;;;16.80;99.90;;;;;;5047823;28;20213;-72
2022/09/17 10:32:38;;;;;;;11.35;2.53;;;16.30;99.90;;;;;;5043015;28;20204;-72
2022/09/17 10:35:15;;;;;;;11.23;3.50;;;16.00;99.90;;;;;;5054804;28;21003;-73
2022/09/17 10:37:44;;;;;;;10.82;2.55;;;15.80;99.90;;;;;;5048504;28;20186;-74
2022/09/17 10:40:19;;;;;;;6.53;2.38;;;15.70;99.90;;;;;;5047566;28;20204;-74
2022/09/17 10:42:45;;;;;;;5.63;2.15;;;15.80;99.90;;;;;;5046422;28;20573;-73
2022/09/17 10:45:23;;;;;;;14.80;2.90;;;15.90;99.90;;;;;;5053389;28;20209;-73
2022/09/17 10:47:50;;;;;;;7.75;2.80;;;16.20;99.90;;;;;;5034198;28;20300;-74
2022/09/17 10:50:23;;;;;;;8.27;2.35;;;16.40;99.90;;;;;;5046198;28;20598;-73
2022/09/17 10:52:55;;;;;;;9.27;2.78;;;16.60;99.90;;;;;;5033009;28;20191;-74
2022/09/17 10:55:32;;;;;;;7.28;2.03;;;16.80;99.90;;;;;;5047039;28;20195;-74
2022/09/17 10:58:03;;;;;;;8.63;2.28;;;16.70;99.90;;;;;;5044427;28;20208;-73
2022/09/17 11:01:12;;;;;;;6.10;1.88;;;16.40;99.90;;;;;;5032476;28;20636;-73
2022/09/17 11:03:50;;;;;;;8.15;1.83;;;16.40;99.90;;;;;;5024736;28;20199;-73
2022/09/17 11:06:40;;;;;;;4.30;1.73;;;16.70;99.90;;;;;;5045118;28;20220;-73
2022/09/17 11:09:08;;;;;;;7.38;1.92;;;17.10;99.90;;;;;;5058111;28;20282;-73
2022/09/17 11:11:49;;;;;;;10.68;2.72;;;17.30;99.90;;;;;;5051092;28;20287;-73
2022/09/17 11:14:36;;;;;;;5.35;1.90;;;17.20;99.90;;;;;;5028671;28;20198;-73
2022/09/17 11:17:24;;;;;;;5.38;2.40;;;17.00;99.90;;;;;;5048436;28;20645;-73
2022/09/17 11:20:16;;;;;;;5.35;2.03;;;17.00;99.90;;;;;;5035841;28;20258;-75
2022/09/17 11:22:47;;;;;;;8.27;2.13;;;17.30;99.90;;;;;;4992716;28;20226;-74
2022/09/17 11:25:28;;;;;;;5.97;1.90;;;17.70;99.90;;;;;;5045125;28;20680;-73
2022/09/17 11:28:18;;;;;;;5.72;2.10;;;17.80;99.90;;;;;;5036628;28;20578;-72
2022/09/17 11:31:05;;;;;;;8.70;2.05;;;17.90;99.90;;;;;;5048199;28;20210;-72
2022/09/17 11:33:34;;;;;;;4.25;1.50;;;17.80;99.90;;;;;;5050045;28;20190;-73
2022/09/17 11:36:08;;;;;;;6.22;1.50;;;17.40;99.90;;;;;;5059327;28;20218;-73
2022/09/17 11:38:51;;;;;;;6.20;1.75;;;17.50;99.90;;;;;;5051660;28;20560;-72
2022/09/17 11:41:35;;;;;;;7.72;1.75;;;17.30;99.90;;;;;;5045632;28;20626;-72
2022/09/17 11:44:35;;;;;;;3.88;1.20;;;17.70;99.90;;;;;;5038385;28;20652;-72
2022/09/17 11:47:09;;;;;;;8.07;2.47;;;17.40;99.90;;;;;;5053917;28;20247;-73
2022/09/17 11:49:45;;;;;;;8.38;2.45;;;17.60;99.90;;;;;;5027673;28;20470;-72
2022/09/17 11:52:26;;;;;;;8.57;2.28;;;17.80;99.90;;;;;;5059884;28;20291;-73
2022/09/17 11:55:17;;;;;;;4.88;1.30;;;17.90;99.90;;;;;;5034596;28;20206;-72
2022/09/17 11:57:46;;;;;;;5.13;1.20;;;17.90;99.90;;;;;;5046935;28;20333;-74
2022/09/17 12:00:17;;;;;;;6.13;1.83;;;17.90;99.90;;;;;;5052882;28;20216;-73
2022/09/17 12:03:25;;;;;;;5.00;1.55;;;17.90;99.90;;;;;;5051494;28;20206;-72
2022/09/17 12:05:57;;;;;;;7.07;2.20;;;17.50;99.90;;;;;;5046582;28;20215;-73
2022/09/17 12:08:37;;;;;;;5.40;1.80;;;17.60;99.90;;;;;;5049627;28;20677;-72
2022/09/17 12:11:26;;;;;;;7.05;1.77;;;17.80;99.90;;;;;;5060520;28;20199;-71
2022/09/17 12:13:55;;;;;;;7.00;1.50;;;17.60;99.90;;;;;;5021178;28;20235;-72
2022/09/17 12:16:41;;;;;;;5.68;1.70;;;17.20;99.90;;;;;;5038128;28;20677;-72
2022/09/17 12:19:25;;;;;;;5.90;1.65;;;16.80;99.90;;;;;;5043814;28;20565;-73
2022/09/17 12:22:07;;;;;;;4.90;1.48;;;16.80;99.90;;;;;;5050325;28;20250;-72
2022/09/17 12:24:33;;;;;;;7.65;2.10;;;16.80;99.90;;;;;;5030295;28;20203;-73
2022/09/17 12:27:16;;;;;;;5.13;1.60;;;16.80;99.90;;;;;;5054977;28;20216;-74
2022/09/17 12:30:05;;;;;;;6.68;1.48;;;16.80;99.90;;;;;;5048957;28;20290;-73
2022/09/17 12:33:05;;;;;;;3.90;1.30;;;16.90;99.90;;;;;;5045385;28;20207;-72
2022/09/17 12:35:33;;;;;;;5.88;1.50;;;16.90;99.90;;;;;;5056816;28;20210;-73
2022/09/17 12:38:36;;;;;;;3.83;1.40;;;17.00;99.90;;;;;;5056121;28;20180;-73
2022/09/17 12:41:01;;;;;;;7.00;1.92;;;17.10;99.90;;;;;;5026205;28;20208;-73
2022/09/17 12:43:50;;;;;;;6.00;1.85;;;17.20;99.90;;;;;;5036194;28;20286;-73
2022/09/17 12:46:25;;;;;;;2.97;1.00;;;17.10;99.90;;;;;;5055681;28;20286;-74
2022/09/17 12:48:56;;;;;;;4.65;1.48;;;17.30;99.90;;;;;;5048271;28;20257;-73
2022/09/17 12:51:22;;;;;;;4.57;1.17;;;17.30;99.90;;;;;;5050354;28;20206;-73
2022/09/17 12:54:14;;;;;;;5.10;1.27;;;17.20;99.90;;;;;;5053500;28;20203;-73
2022/09/17 12:57:20;;;;;;;3.60;1.42;;;17.10;99.90;;;;;;5031695;28;20231;-73
2022/09/17 13:00:17;;;;;;;4.90;1.55;;;16.80;99.90;;;;;;5036548;28;20582;-73
2022/09/17 13:02:50;;;;;;;5.13;1.35;;;16.70;99.90;;;;;;5050255;28;20202;-72
2022/09/17 13:05:25;;;;;;;3.33;1.20;;;16.60;99.90;;;;;;5031716;28;20277;-73
2022/09/17 13:07:53;;;;;;;4.15;1.13;;;16.60;99.90;;;;;;5028656;28;20178;-73
2022/09/17 13:10:36;;;;;;;4.70;1.38;;;16.70;99.90;;;;;;5052354;28;20564;-73
2022/09/17 13:13:30;;;;;;;3.88;1.23;;;16.70;99.90;;;;;;5031056;28;20210;-73